sensor_id;sensor_type;location;lat;lon;timestamp;P1;durP1;ratioP1;P2;durP2;ratioP2
56599;SDS011;51832;48.152;11.530;2023-05-07T00:04:25;6.80;;;6.10;;
56599;SDS011;51832;48.152;11.530;2023-05-07T00:09:25;8.15;;;6.00;;
56599;SDS011;51832;48.152;11.530;2023-05-07T00:14:25;9.63;;;7.10;;
56599;SDS011;51832;48.152;11.530;2023-05-07T00:19:26;11.13;;;6.93;;
56599;SDS011;51832;48.152;11.530;2023-05-07T00:24:26;7.20;;;6.30;;
56599;SDS011;51832;48.152;11.530;2023-05-07T00:29:27;7.65;;;6.85;;
56599;SDS011;51832;48.152;11.530;2023-05-07T00:34:27;11.13;;;7.00;;
56599;SDS011;51832;48.152;11.530;2023-05-07T00:39:28;9.73;;;6.97;;
56599;SDS011;51832;48.152;11.530;2023-05-07T00:44:28;10.07;;;6.68;;
56599;SDS011;51832;48.152;11.530;2023-05-07T00:49:34;7.90;;;7.07;;
56599;SDS011;51832;48.152;11.530;2023-05-07T00:54:38;10.48;;;8.02;;
56599;SDS011;51832;48.152;11.530;2023-05-07T00:59:40;8.93;;;7.10;;
56599;SDS011;51832;48.152;11.530;2023-05-07T01:04:41;10.02;;;7.07;;
56599;SDS011;51832;48.152;11.530;2023-05-07T01:09:41;11.20;;;7.50;;
56599;SDS011;51832;48.152;11.530;2023-05-07T01:14:42;10.07;;;7.13;;
56599;SDS011;51832;48.152;11.530;2023-05-07T01:19:42;8.98;;;7.60;;
56599;SDS011;51832;48.152;11.530;2023-05-07T01:24:44;9.90;;;7.68;;
56599;SDS011;51832;48.152;11.530;2023-05-07T01:29:45;9.35;;;7.32;;
56599;SDS011;51832;48.152;11.530;2023-05-07T01:34:45;10.13;;;6.95;;
56599;SDS011;51832;48.152;11.530;2023-05-07T01:39:48;10.40;;;7.50;;
56599;SDS011;51832;48.152;11.530;2023-05-07T01:44:48;12.15;;;8.70;;
56599;SDS011;51832;48.152;11.530;2023-05-07T01:49:49;11.52;;;7.97;;
56599;SDS011;51832;48.152;11.530;2023-05-07T01:54:50;8.82;;;7.93;;
56599;SDS011;51832;48.152;11.530;2023-05-07T01:59:50;9.60;;;7.30;;
56599;SDS011;51832;48.152;11.530;2023-05-07T02:04:51;8.55;;;7.40;;
56599;SDS011;51832;48.152;11.530;2023-05-07T02:09:51;8.77;;;6.70;;
56599;SDS011;51832;48.152;11.530;2023-05-07T02:14:52;8.65;;;7.15;;
56599;SDS011;51832;48.152;11.530;2023-05-07T02:19:52;10.48;;;8.30;;
56599;SDS011;51832;48.152;11.530;2023-05-07T02:24:53;11.03;;;7.40;;
56599;SDS011;51832;48.152;11.530;2023-05-07T02:29:53;9.07;;;7.40;;
56599;SDS011;51832;48.152;11.530;2023-05-07T02:34:54;9.88;;;7.13;;
56599;SDS011;51832;48.152;11.530;2023-05-07T02:39:54;7.72;;;6.93;;
56599;SDS011;51832;48.152;11.530;2023-05-07T02:44:54;8.00;;;6.53;;
56599;SDS011;51832;48.152;11.530;2023-05-07T02:49:55;8.73;;;6.72;;
56599;SDS011;51832;48.152;11.530;2023-05-07T02:54:55;9.03;;;6.40;;
56599;SDS011;51832;48.152;11.530;2023-05-07T02:59:57;8.43;;;6.63;;
56599;SDS011;51832;48.152;11.530;2023-05-07T03:04:58;9.43;;;7.20;;
56599;SDS011;51832;48.152;11.530;2023-05-07T03:09:59;9.48;;;6.78;;
56599;SDS011;51832;48.152;11.530;2023-05-07T03:15:00;7.47;;;6.30;;
56599;SDS011;51832;48.152;11.530;2023-05-07T03:20:00;7.28;;;5.75;;
56599;SDS011;51832;48.152;11.530;2023-05-07T03:25:00;9.80;;;5.83;;
56599;SDS011;51832;48.152;11.530;2023-05-07T03:30:01;7.13;;;6.30;;
56599;SDS011;51832;48.152;11.530;2023-05-07T03:35:01;6.50;;;5.90;;
56599;SDS011;51832;48.152;11.530;2023-05-07T03:40:02;9.65;;;5.43;;
56599;SDS011;51832;48.152;11.530;2023-05-07T03:45:03;7.40;;;5.32;;
56599;SDS011;51832;48.152;11.530;2023-05-07T03:50:04;6.40;;;5.50;;
56599;SDS011;51832;48.152;11.530;2023-05-07T03:55:05;6.78;;;5.55;;
56599;SDS011;51832;48.152;11.530;2023-05-07T04:00:06;8.85;;;5.75;;
56599;SDS011;51832;48.152;11.530;2023-05-07T04:05:07;6.07;;;5.47;;
56599;SDS011;51832;48.152;11.530;2023-05-07T04:10:08;6.47;;;5.75;;
56599;SDS011;51832;48.152;11.530;2023-05-07T04:15:09;6.22;;;5.47;;
56599;SDS011;51832;48.152;11.530;2023-05-07T04:20:10;5.63;;;5.10;;
56599;SDS011;51832;48.152;11.530;2023-05-07T04:25:12;7.03;;;6.40;;
56599;SDS011;51832;48.152;11.530;2023-05-07T04:30:13;6.55;;;5.20;;
56599;SDS011;51832;48.152;11.530;2023-05-07T04:35:13;6.40;;;5.72;;
56599;SDS011;51832;48.152;11.530;2023-05-07T04:40:14;5.93;;;5.35;;
56599;SDS011;51832;48.152;11.530;2023-05-07T04:45:15;8.32;;;6.30;;
56599;SDS011;51832;48.152;11.530;2023-05-07T04:50:16;6.00;;;5.50;;
56599;SDS011;51832;48.152;11.530;2023-05-07T04:55:17;6.20;;;5.57;;
56599;SDS011;51832;48.152;11.530;2023-05-07T05:00:18;7.60;;;5.05;;
56599;SDS011;51832;48.152;11.530;2023-05-07T05:05:19;5.30;;;4.80;;
56599;SDS011;51832;48.152;11.530;2023-05-07T05:10:20;6.32;;;4.95;;
56599;SDS011;51832;48.152;11.530;2023-05-07T05:15:22;5.03;;;4.25;;
56599;SDS011;51832;48.152;11.530;2023-05-07T05:20:23;5.28;;;4.78;;
56599;SDS011;51832;48.152;11.530;2023-05-07T05:25:24;5.72;;;4.55;;
56599;SDS011;51832;48.152;11.530;2023-05-07T05:30:24;5.10;;;4.60;;
56599;SDS011;51832;48.152;11.530;2023-05-07T05:35:25;5.72;;;4.47;;
56599;SDS011;51832;48.152;11.530;2023-05-07T05:40:25;4.60;;;4.10;;
56599;SDS011;51832;48.152;11.530;2023-05-07T05:45:26;5.78;;;3.88;;
56599;SDS011;51832;48.152;11.530;2023-05-07T05:50:26;5.00;;;4.32;;
56599;SDS011;51832;48.152;11.530;2023-05-07T05:55:26;4.80;;;4.13;;
56599;SDS011;51832;48.152;11.530;2023-05-07T06:00:27;7.97;;;4.88;;
56599;SDS011;51832;48.152;11.530;2023-05-07T06:05:29;4.57;;;4.10;;
56599;SDS011;51832;48.152;11.530;2023-05-07T06:10:30;5.20;;;4.70;;
56599;SDS011;51832;48.152;11.530;2023-05-07T06:15:30;5.75;;;4.28;;
56599;SDS011;51832;48.152;11.530;2023-05-07T06:20:30;5.07;;;4.57;;
56599;SDS011;51832;48.152;11.530;2023-05-07T06:25:31;5.23;;;4.73;;
56599;SDS011;51832;48.152;11.530;2023-05-07T06:30:31;5.20;;;4.70;;
56599;SDS011;51832;48.152;11.530;2023-05-07T06:35:32;4.57;;;4.18;;
56599;SDS011;51832;48.152;11.530;2023-05-07T06:40:32;4.22;;;3.83;;
56599;SDS011;51832;48.152;11.530;2023-05-07T06:45:33;4.60;;;3.53;;
56599;SDS011;51832;48.152;11.530;2023-05-07T06:50:33;5.40;;;4.43;;
56599;SDS011;51832;48.152;11.530;2023-05-07T06:55:33;4.28;;;3.88;;
56599;SDS011;51832;48.152;11.530;2023-05-07T07:00:34;4.45;;;3.42;;
56599;SDS011;51832;48.152;11.530;2023-05-07T07:05:35;4.05;;;3.25;;
56599;SDS011;51832;48.152;11.530;2023-05-07T07:10:35;3.90;;;3.47;;
56599;SDS011;51832;48.152;11.530;2023-05-07T07:15:36;4.28;;;3.70;;
56599;SDS011;51832;48.152;11.530;2023-05-07T07:20:36;7.18;;;4.88;;
56599;SDS011;51832;48.152;11.530;2023-05-07T07:25:37;5.00;;;3.65;;
56599;SDS011;51832;48.152;11.530;2023-05-07T07:30:37;4.93;;;3.23;;
56599;SDS011;51832;48.152;11.530;2023-05-07T07:35:38;3.78;;;3.28;;
56599;SDS011;51832;48.152;11.530;2023-05-07T07:40:38;5.37;;;3.30;;
56599;SDS011;51832;48.152;11.530;2023-05-07T07:45:39;3.63;;;3.28;;
56599;SDS011;51832;48.152;11.530;2023-05-07T07:50:40;3.60;;;3.30;;
56599;SDS011;51832;48.152;11.530;2023-05-07T07:55:40;4.28;;;3.20;;
56599;SDS011;51832;48.152;11.530;2023-05-07T08:00:41;3.90;;;3.33;;
56599;SDS011;51832;48.152;11.530;2023-05-07T08:05:41;4.60;;;3.50;;
56599;SDS011;51832;48.152;11.530;2023-05-07T08:10:42;3.78;;;3.22;;
56599;SDS011;51832;48.152;11.530;2023-05-07T08:15:43;3.33;;;3.00;;
56599;SDS011;51832;48.152;11.530;2023-05-07T08:20:43;4.33;;;3.93;;
56599;SDS011;51832;48.152;11.530;2023-05-07T08:25:43;3.70;;;3.40;;
56599;SDS011;51832;48.152;11.530;2023-05-07T08:30:44;4.77;;;4.00;;
56599;SDS011;51832;48.152;11.530;2023-05-07T08:35:44;3.93;;;3.53;;
56599;SDS011;51832;48.152;11.530;2023-05-07T08:40:45;3.13;;;2.70;;
56599;SDS011;51832;48.152;11.530;2023-05-07T08:45:45;4.43;;;3.30;;
56599;SDS011;51832;48.152;11.530;2023-05-07T08:50:49;3.20;;;2.50;;
56599;SDS011;51832;48.152;11.530;2023-05-07T08:55:49;4.18;;;3.13;;
56599;SDS011;51832;48.152;11.530;2023-05-07T09:00:51;4.55;;;3.40;;
56599;SDS011;51832;48.152;11.530;2023-05-07T09:10:54;4.22;;;2.88;;
56599;SDS011;51832;48.152;11.530;2023-05-07T09:15:55;3.55;;;3.13;;
56599;SDS011;51832;48.152;11.530;2023-05-07T09:20:55;5.28;;;3.00;;
56599;SDS011;51832;48.152;11.530;2023-05-07T09:25:59;4.20;;;3.07;;
56599;SDS011;51832;48.152;11.530;2023-05-07T09:31:00;5.13;;;3.40;;
56599;SDS011;51832;48.152;11.530;2023-05-07T09:36:04;3.60;;;3.30;;
56599;SDS011;51832;48.152;11.530;2023-05-07T09:41:07;4.60;;;2.78;;
56599;SDS011;51832;48.152;11.530;2023-05-07T09:46:13;3.65;;;2.70;;
56599;SDS011;51832;48.152;11.530;2023-05-07T09:51:16;3.47;;;2.63;;
56599;SDS011;51832;48.152;11.530;2023-05-07T09:56:20;3.28;;;2.75;;
56599;SDS011;51832;48.152;11.530;2023-05-07T10:01:21;3.45;;;2.97;;
56599;SDS011;51832;48.152;11.530;2023-05-07T10:06:23;3.22;;;2.83;;
56599;SDS011;51832;48.152;11.530;2023-05-07T10:11:25;4.50;;;3.15;;
56599;SDS011;51832;48.152;11.530;2023-05-07T10:16:26;4.63;;;2.85;;
56599;SDS011;51832;48.152;11.530;2023-05-07T10:21:27;3.60;;;2.78;;
56599;SDS011;51832;48.152;11.530;2023-05-07T10:26:31;4.60;;;2.67;;
56599;SDS011;51832;48.152;11.530;2023-05-07T10:37:00;2.22;;;2.03;;
56599;SDS011;51832;48.152;11.530;2023-05-07T10:42:10;2.70;;;2.50;;
56599;SDS011;51832;48.152;11.530;2023-05-07T10:47:12;2.75;;;2.30;;
56599;SDS011;51832;48.152;11.530;2023-05-07T10:52:22;5.30;;;2.30;;
56599;SDS011;51832;48.152;11.530;2023-05-07T11:07:59;2.92;;;2.40;;
56599;SDS011;51832;48.152;11.530;2023-05-07T11:13:01;2.55;;;2.35;;
56599;SDS011;51832;48.152;11.530;2023-05-07T11:18:02;3.55;;;2.70;;
56599;SDS011;51832;48.152;11.530;2023-05-07T11:23:03;6.88;;;2.80;;
56599;SDS011;51832;48.152;11.530;2023-05-07T11:28:07;2.77;;;2.53;;
56599;SDS011;51832;48.152;11.530;2023-05-07T11:33:10;3.05;;;2.72;;
56599;SDS011;51832;48.152;11.530;2023-05-07T11:38:11;4.03;;;2.75;;
56599;SDS011;51832;48.152;11.530;2023-05-07T11:43:12;4.05;;;2.42;;
56599;SDS011;51832;48.152;11.530;2023-05-07T11:48:13;3.20;;;2.08;;
56599;SDS011;51832;48.152;11.530;2023-05-07T11:53:15;3.92;;;2.80;;
56599;SDS011;51832;48.152;11.530;2023-05-07T11:58:20;3.70;;;2.88;;
56599;SDS011;51832;48.152;11.530;2023-05-07T12:03:21;3.60;;;2.58;;
56599;SDS011;51832;48.152;11.530;2023-05-07T12:08:22;3.90;;;2.90;;
56599;SDS011;51832;48.152;11.530;2023-05-07T12:13:23;2.60;;;2.40;;
56599;SDS011;51832;48.152;11.530;2023-05-07T12:18:24;3.15;;;2.85;;
56599;SDS011;51832;48.152;11.530;2023-05-07T12:23:25;2.97;;;2.53;;
56599;SDS011;51832;48.152;11.530;2023-05-07T12:28:26;3.08;;;2.83;;
56599;SDS011;51832;48.152;11.530;2023-05-07T12:33:27;2.92;;;2.63;;
56599;SDS011;51832;48.152;11.530;2023-05-07T12:38:32;2.88;;;2.63;;
56599;SDS011;51832;48.152;11.530;2023-05-07T12:43:35;3.05;;;2.80;;
56599;SDS011;51832;48.152;11.530;2023-05-07T12:48:36;4.07;;;2.70;;
56599;SDS011;51832;48.152;11.530;2023-05-07T12:53:41;3.50;;;2.53;;
56599;SDS011;51832;48.152;11.530;2023-05-07T12:58:44;3.88;;;2.70;;
56599;SDS011;51832;48.152;11.530;2023-05-07T13:03:48;2.83;;;2.40;;
56599;SDS011;51832;48.152;11.530;2023-05-07T13:08:50;2.47;;;2.20;;
56599;SDS011;51832;48.152;11.530;2023-05-07T13:13:50;3.63;;;2.53;;
56599;SDS011;51832;48.152;11.530;2023-05-07T13:18:51;2.23;;;2.00;;
56599;SDS011;51832;48.152;11.530;2023-05-07T13:23:51;3.17;;;1.93;;
56599;SDS011;51832;48.152;11.530;2023-05-07T13:28:55;2.57;;;2.20;;
56599;SDS011;51832;48.152;11.530;2023-05-07T13:33:55;3.40;;;2.22;;
56599;SDS011;51832;48.152;11.530;2023-05-07T13:38:56;2.53;;;2.10;;
56599;SDS011;51832;48.152;11.530;2023-05-07T13:43:58;2.28;;;2.10;;
56599;SDS011;51832;48.152;11.530;2023-05-07T13:48:58;3.63;;;2.30;;
56599;SDS011;51832;48.152;11.530;2023-05-07T13:53:59;3.58;;;2.40;;
56599;SDS011;51832;48.152;11.530;2023-05-07T13:58:59;2.88;;;2.58;;
56599;SDS011;51832;48.152;11.530;2023-05-07T14:04:00;3.22;;;2.55;;
56599;SDS011;51832;48.152;11.530;2023-05-07T14:09:00;2.73;;;2.40;;
56599;SDS011;51832;48.152;11.530;2023-05-07T14:14:01;2.72;;;2.53;;
56599;SDS011;51832;48.152;11.530;2023-05-07T14:19:01;2.85;;;2.55;;
56599;SDS011;51832;48.152;11.530;2023-05-07T14:24:02;3.55;;;2.50;;
56599;SDS011;51832;48.152;11.530;2023-05-07T14:29:03;2.90;;;2.70;;
56599;SDS011;51832;48.152;11.530;2023-05-07T14:34:03;3.13;;;2.40;;
56599;SDS011;51832;48.152;11.530;2023-05-07T14:39:04;3.10;;;2.80;;
56599;SDS011;51832;48.152;11.530;2023-05-07T14:44:04;3.13;;;2.83;;
56599;SDS011;51832;48.152;11.530;2023-05-07T14:49:05;3.77;;;3.27;;
56599;SDS011;51832;48.152;11.530;2023-05-07T14:54:06;3.90;;;3.33;;
56599;SDS011;51832;48.152;11.530;2023-05-07T14:59:06;3.90;;;2.70;;
56599;SDS011;51832;48.152;11.530;2023-05-07T15:04:07;4.25;;;2.78;;
56599;SDS011;51832;48.152;11.530;2023-05-07T15:09:08;5.00;;;3.15;;
56599;SDS011;51832;48.152;11.530;2023-05-07T15:14:09;4.38;;;3.00;;
56599;SDS011;51832;48.152;11.530;2023-05-07T15:19:09;5.13;;;3.80;;
56599;SDS011;51832;48.152;11.530;2023-05-07T15:24:10;4.70;;;3.30;;
56599;SDS011;51832;48.152;11.530;2023-05-07T15:29:10;3.23;;;2.97;;
56599;SDS011;51832;48.152;11.530;2023-05-07T15:34:10;3.70;;;2.90;;
56599;SDS011;51832;48.152;11.530;2023-05-07T15:39:11;3.33;;;3.03;;
56599;SDS011;51832;48.152;11.530;2023-05-07T15:44:11;3.33;;;3.00;;
56599;SDS011;51832;48.152;11.530;2023-05-07T15:49:12;3.30;;;3.00;;
56599;SDS011;51832;48.152;11.530;2023-05-07T15:54:12;3.35;;;2.90;;
56599;SDS011;51832;48.152;11.530;2023-05-07T15:59:13;4.93;;;3.10;;
56599;SDS011;51832;48.152;11.530;2023-05-07T16:04:15;3.30;;;2.97;;
56599;SDS011;51832;48.152;11.530;2023-05-07T16:09:15;4.38;;;2.67;;
56599;SDS011;51832;48.152;11.530;2023-05-07T16:14:16;2.90;;;2.60;;
56599;SDS011;51832;48.152;11.530;2023-05-07T16:19:16;3.37;;;2.80;;
56599;SDS011;51832;48.152;11.530;2023-05-07T16:24:17;2.83;;;2.42;;
56599;SDS011;51832;48.152;11.530;2023-05-07T16:29:17;2.67;;;2.47;;
56599;SDS011;51832;48.152;11.530;2023-05-07T16:34:19;4.13;;;2.40;;
56599;SDS011;51832;48.152;11.530;2023-05-07T16:39:20;2.83;;;2.40;;
56599;SDS011;51832;48.152;11.530;2023-05-07T16:44:21;2.85;;;2.50;;
56599;SDS011;51832;48.152;11.530;2023-05-07T16:49:22;4.25;;;2.80;;
56599;SDS011;51832;48.152;11.530;2023-05-07T16:54:22;2.50;;;2.30;;
56599;SDS011;51832;48.152;11.530;2023-05-07T16:59:22;3.30;;;2.88;;
56599;SDS011;51832;48.152;11.530;2023-05-07T17:04:23;2.72;;;2.45;;
56599;SDS011;51832;48.152;11.530;2023-05-07T17:09:24;3.67;;;2.20;;
56599;SDS011;51832;48.152;11.530;2023-05-07T17:14:24;3.42;;;2.67;;
56599;SDS011;51832;48.152;11.530;2023-05-07T17:19:25;3.17;;;2.40;;
56599;SDS011;51832;48.152;11.530;2023-05-07T17:24:25;3.77;;;2.40;;
56599;SDS011;51832;48.152;11.530;2023-05-07T17:29:25;2.80;;;2.40;;
56599;SDS011;51832;48.152;11.530;2023-05-07T17:34:26;2.47;;;2.28;;
56599;SDS011;51832;48.152;11.530;2023-05-07T17:39:26;4.93;;;2.70;;
56599;SDS011;51832;48.152;11.530;2023-05-07T17:44:27;2.93;;;2.57;;
56599;SDS011;51832;48.152;11.530;2023-05-07T17:49:27;2.55;;;2.30;;
56599;SDS011;51832;48.152;11.530;2023-05-07T17:54:28;2.70;;;2.50;;
56599;SDS011;51832;48.152;11.530;2023-05-07T17:59:29;4.72;;;2.33;;
56599;SDS011;51832;48.152;11.530;2023-05-07T18:04:29;2.95;;;2.42;;
56599;SDS011;51832;48.152;11.530;2023-05-07T18:09:30;2.70;;;2.50;;
56599;SDS011;51832;48.152;11.530;2023-05-07T18:14:30;5.18;;;2.78;;
56599;SDS011;51832;48.152;11.530;2023-05-07T18:19:31;7.55;;;2.53;;
56599;SDS011;51832;48.152;11.530;2023-05-07T18:24:31;3.17;;;2.88;;
56599;SDS011;51832;48.152;11.530;2023-05-07T18:29:32;3.03;;;2.72;;
56599;SDS011;51832;48.152;11.530;2023-05-07T18:34:32;3.28;;;2.65;;
56599;SDS011;51832;48.152;11.530;2023-05-07T18:39:34;5.57;;;2.55;;
56599;SDS011;51832;48.152;11.530;2023-05-07T18:44:35;3.78;;;3.00;;
56599;SDS011;51832;48.152;11.530;2023-05-07T18:49:37;2.40;;;2.20;;
56599;SDS011;51832;48.152;11.530;2023-05-07T18:54:38;3.00;;;2.70;;
56599;SDS011;51832;48.152;11.530;2023-05-07T18:59:38;4.00;;;2.67;;
56599;SDS011;51832;48.152;11.530;2023-05-07T19:04:39;3.17;;;2.80;;
56599;SDS011;51832;48.152;11.530;2023-05-07T19:09:40;3.85;;;2.70;;
56599;SDS011;51832;48.152;11.530;2023-05-07T19:14:40;3.88;;;2.92;;
56599;SDS011;51832;48.152;11.530;2023-05-07T19:19:41;3.13;;;2.83;;
56599;SDS011;51832;48.152;11.530;2023-05-07T19:24:43;3.55;;;3.17;;
56599;SDS011;51832;48.152;11.530;2023-05-07T19:29:43;5.55;;;4.20;;
56599;SDS011;51832;48.152;11.530;2023-05-07T19:34:44;4.38;;;3.97;;
56599;SDS011;51832;48.152;11.530;2023-05-07T19:39:48;4.53;;;4.13;;
56599;SDS011;51832;48.152;11.530;2023-05-07T19:44:51;5.93;;;4.72;;
56599;SDS011;51832;48.152;11.530;2023-05-07T19:49:51;5.05;;;4.30;;
56599;SDS011;51832;48.152;11.530;2023-05-07T19:54:52;5.05;;;4.55;;
56599;SDS011;51832;48.152;11.530;2023-05-07T19:59:52;6.10;;;5.03;;
56599;SDS011;51832;48.152;11.530;2023-05-07T20:04:53;5.97;;;5.13;;
56599;SDS011;51832;48.152;11.530;2023-05-07T20:09:54;5.43;;;4.90;;
56599;SDS011;51832;48.152;11.530;2023-05-07T20:14:54;6.53;;;5.05;;
56599;SDS011;51832;48.152;11.530;2023-05-07T20:19:55;6.53;;;4.63;;
56599;SDS011;51832;48.152;11.530;2023-05-07T20:24:55;5.20;;;4.70;;
56599;SDS011;51832;48.152;11.530;2023-05-07T20:29:55;5.85;;;5.05;;
56599;SDS011;51832;48.152;11.530;2023-05-07T20:34:56;5.53;;;4.50;;
56599;SDS011;51832;48.152;11.530;2023-05-07T20:39:56;9.48;;;6.10;;
56599;SDS011;51832;48.152;11.530;2023-05-07T20:44:57;7.93;;;5.63;;
56599;SDS011;51832;48.152;11.530;2023-05-07T20:49:57;7.93;;;5.40;;
56599;SDS011;51832;48.152;11.530;2023-05-07T20:54:58;7.43;;;5.97;;
56599;SDS011;51832;48.152;11.530;2023-05-07T20:59:58;7.33;;;4.97;;
56599;SDS011;51832;48.152;11.530;2023-05-07T21:04:58;7.47;;;5.50;;
56599;SDS011;51832;48.152;11.530;2023-05-07T21:09:59;7.18;;;5.75;;
56599;SDS011;51832;48.152;11.530;2023-05-07T21:14:59;7.63;;;5.75;;
56599;SDS011;51832;48.152;11.530;2023-05-07T21:20:00;7.13;;;6.10;;
56599;SDS011;51832;48.152;11.530;2023-05-07T21:25:02;7.47;;;6.30;;
56599;SDS011;51832;48.152;11.530;2023-05-07T21:30:03;9.07;;;6.10;;
56599;SDS011;51832;48.152;11.530;2023-05-07T21:35:04;7.43;;;6.20;;
56599;SDS011;51832;48.152;11.530;2023-05-07T21:40:05;8.75;;;6.43;;
56599;SDS011;51832;48.152;11.530;2023-05-07T21:45:06;7.57;;;6.70;;
56599;SDS011;51832;48.152;11.530;2023-05-07T21:50:07;8.10;;;6.38;;
56599;SDS011;51832;48.152;11.530;2023-05-07T21:55:07;7.72;;;5.88;;
56599;SDS011;51832;48.152;11.530;2023-05-07T22:00:08;7.28;;;6.28;;
56599;SDS011;51832;48.152;11.530;2023-05-07T22:05:09;6.78;;;6.07;;
56599;SDS011;51832;48.152;11.530;2023-05-07T22:10:10;7.82;;;6.35;;
56599;SDS011;51832;48.152;11.530;2023-05-07T22:15:10;8.10;;;6.15;;
56599;SDS011;51832;48.152;11.530;2023-05-07T22:20:11;8.37;;;6.10;;
56599;SDS011;51832;48.152;11.530;2023-05-07T22:25:12;7.60;;;6.40;;
56599;SDS011;51832;48.152;11.530;2023-05-07T22:30:12;8.40;;;6.85;;
56599;SDS011;51832;48.152;11.530;2023-05-07T22:35:13;7.85;;;6.50;;
56599;SDS011;51832;48.152;11.530;2023-05-07T22:40:14;10.55;;;7.05;;
56599;SDS011;51832;48.152;11.530;2023-05-07T22:45:14;7.13;;;6.38;;
56599;SDS011;51832;48.152;11.530;2023-05-07T22:50:15;7.40;;;6.15;;
56599;SDS011;51832;48.152;11.530;2023-05-07T22:55:15;8.70;;;6.35;;
56599;SDS011;51832;48.152;11.530;2023-05-07T23:00:16;9.07;;;6.57;;
56599;SDS011;51832;48.152;11.530;2023-05-07T23:05:16;8.40;;;7.00;;
56599;SDS011;51832;48.152;11.530;2023-05-07T23:10:17;8.17;;;6.73;;
56599;SDS011;51832;48.152;11.530;2023-05-07T23:15:17;9.15;;;7.00;;
56599;SDS011;51832;48.152;11.530;2023-05-07T23:20:18;7.80;;;6.50;;
56599;SDS011;51832;48.152;11.530;2023-05-07T23:25:19;9.00;;;6.70;;
56599;SDS011;51832;48.152;11.530;2023-05-07T23:30:19;9.50;;;7.22;;
56599;SDS011;51832;48.152;11.530;2023-05-07T23:35:20;8.38;;;6.75;;
56599;SDS011;51832;48.152;11.530;2023-05-07T23:40:21;10.50;;;7.03;;
56599;SDS011;51832;48.152;11.530;2023-05-07T23:45:21;9.80;;;7.43;;
56599;SDS011;51832;48.152;11.530;2023-05-07T23:50:22;10.32;;;7.40;;
56599;SDS011;51832;48.152;11.530;2023-05-07T23:55:22;8.40;;;6.87;;
